Time;durP1;ratioP1;P1;durP2;ratioP2;P2;SDS_P1;SDS_P2;PMS_P1;PMS_P2;Temp;Humidity;BMP_temperature;BMP_pressure;BME280_temperature;BME280_humidity;BME280_pressure;Samples;Min_cycle;Max_cycle;Signal;HPM_P1;HPM_P2
2021/06/06 00:02:09;;;;;;;17.60;9.23;;;19.20;98.90;;;;;;5162072;27;20399;-79
2021/06/06 00:04:39;;;;;;;15.43;9.23;;;19.10;99.10;;;;;;5161630;27;20029;-79
2021/06/06 00:07:05;;;;;;;15.30;8.90;;;19.20;98.70;;;;;;5161981;27;20475;-79
2021/06/06 00:09:32;;;;;;;19.30;9.90;;;19.10;98.90;;;;;;5159522;27;20026;-79
2021/06/06 00:11:58;;;;;;;28.15;9.75;;;19.10;99.30;;;;;;5159033;27;20049;-78
2021/06/06 00:14:31;;;;;;;17.60;10.52;;;18.80;99.90;;;;;;5160188;27;20022;-81
2021/06/06 00:17:00;;;;;;;18.17;10.45;;;18.60;99.90;;;;;;5161476;27;20057;-79
2021/06/06 00:19:27;;;;;;;23.08;12.20;;;18.70;99.90;;;;;;5161681;27;20468;-79
2021/06/06 00:21:55;;;;;;;22.75;12.25;;;18.70;99.90;;;;;;5162080;27;20010;-78
2021/06/06 00:24:26;;;;;;;26.80;13.45;;;18.60;99.90;;;;;;5162145;27;20023;-78
2021/06/06 00:26:52;;;;;;;19.83;10.98;;;18.50;99.90;;;;;;5161941;27;20506;-80
2021/06/06 00:29:22;;;;;;;22.58;11.27;;;18.60;99.90;;;;;;5162780;27;20465;-77
2021/06/06 00:31:48;;;;;;;19.08;11.02;;;18.60;99.90;;;;;;5159390;27;20383;-78
2021/06/06 00:34:14;;;;;;;22.95;11.82;;;18.60;99.90;;;;;;5162196;27;20051;-80
2021/06/06 00:36:40;;;;;;;21.60;10.90;;;18.40;99.90;;;;;;5162081;27;20046;-78
2021/06/06 00:39:06;;;;;;;20.10;11.38;;;18.20;99.90;;;;;;5160751;27;20022;-76
2021/06/06 00:41:36;;;;;;;15.43;10.35;;;18.20;99.80;;;;;;5159534;27;20014;-76
2021/06/06 00:44:03;;;;;;;18.20;10.63;;;18.30;99.60;;;;;;5161915;27;20026;-79
2021/06/06 00:46:30;;;;;;;20.48;10.27;;;18.30;99.40;;;;;;5161020;27;20101;-78
2021/06/06 00:48:58;;;;;;;19.08;10.10;;;18.20;98.80;;;;;;5161613;27;20105;-76
2021/06/06 00:51:45;;;;;;;15.48;9.52;;;18.10;98.90;;;;;;5161978;27;20023;-79
2021/06/06 00:54:21;;;;;;;19.77;10.23;;;17.90;98.90;;;;;;5162249;27;20477;-79
2021/06/06 00:56:50;;;;;;;19.05;9.35;;;17.50;99.60;;;;;;5159797;27;20109;-77
2021/06/06 00:59:20;;;;;;;17.63;9.93;;;17.50;99.60;;;;;;5161846;27;20026;-78
2021/06/06 01:01:46;;;;;;;18.67;9.60;;;17.50;99.70;;;;;;5161334;27;20107;-80
2021/06/06 01:04:13;;;;;;;17.38;9.50;;;17.60;99.70;;;;;;5161804;27;20026;-78
2021/06/06 01:06:45;;;;;;;15.82;9.30;;;17.70;99.70;;;;;;5159059;27;20027;-77
2021/06/06 01:09:12;;;;;;;13.13;9.35;;;17.70;99.60;;;;;;5162044;27;20022;-79
2021/06/06 01:11:53;;;;;;;14.70;9.50;;;17.80;99.70;;;;;;5160528;27;20019;-78
2021/06/06 01:14:23;;;;;;;14.32;9.38;;;17.80;99.80;;;;;;5159939;27;20027;-78
2021/06/06 01:17:15;;;;;;;13.25;9.20;;;17.70;99.70;;;;;;5159725;27;20102;-78
2021/06/06 01:19:47;;;;;;;17.95;9.38;;;17.50;99.70;;;;;;5162143;27;20018;-76
2021/06/06 01:22:38;;;;;;;11.27;8.30;;;17.40;99.70;;;;;;5162504;27;20039;-80
2021/06/06 01:25:30;;;;;;;11.30;8.45;;;17.60;99.90;;;;;;5161060;27;20472;-77
2021/06/06 01:28:12;;;;;;;14.18;8.35;;;17.90;99.60;;;;;;5160628;27;20113;-76
2021/06/06 01:30:44;;;;;;;16.70;9.35;;;17.90;99.20;;;;;;5159333;27;20054;-78
2021/06/06 01:34:02;;;;;;;16.00;9.65;;;17.70;99.20;;;;;;5162065;27;20075;-79
2021/06/06 01:36:33;;;;;;;16.80;9.90;;;17.40;99.80;;;;;;5060104;28;20049;-78
2021/06/06 01:39:09;;;;;;;14.20;10.30;;;17.40;99.90;;;;;;5061170;28;20083;-77
2021/06/06 01:41:40;;;;;;;15.48;9.57;;;17.40;99.90;;;;;;5079537;28;20024;-78
2021/06/06 01:44:12;;;;;;;14.32;9.93;;;17.30;99.90;;;;;;5075016;28;20016;-79
2021/06/06 01:46:43;;;;;;;15.80;9.48;;;17.40;99.90;;;;;;5076978;28;20098;-78
2021/06/06 01:49:11;;;;;;;17.58;9.93;;;17.50;99.90;;;;;;5077413;28;20024;-80
2021/06/06 01:51:40;;;;;;;16.58;10.75;;;17.50;99.90;;;;;;5074148;28;20032;-77
2021/06/06 01:54:12;;;;;;;15.70;11.30;;;17.40;99.90;;;;;;5057662;28;20378;-79
2021/06/06 01:56:40;;;;;;;14.40;11.35;;;17.10;99.90;;;;;;5059665;28;20032;-77
2021/06/06 01:59:13;;;;;;;18.13;11.18;;;17.20;99.90;;;;;;5076290;28;20032;-78
2021/06/06 02:01:40;;;;;;;15.35;11.20;;;17.00;99.90;;;;;;5076915;28;20086;-77
2021/06/06 02:04:08;;;;;;;16.17;10.82;;;16.80;99.90;;;;;;5058124;28;20040;-77
2021/06/06 02:07:00;;;;;;;12.65;10.38;;;16.90;99.90;;;;;;5075081;28;20095;-78
2021/06/06 02:09:30;;;;;;;16.80;11.07;;;17.00;99.90;;;;;;5061024;28;20021;-79
2021/06/06 02:12:00;;;;;;;13.70;10.38;;;17.00;99.90;;;;;;5115811;27;21977;-79
2021/06/06 02:14:37;;;;;;;14.15;10.40;;;17.20;99.90;;;;;;5160048;27;20032;-76
2021/06/06 02:17:08;;;;;;;14.13;9.82;;;17.30;99.90;;;;;;5160608;27;20477;-79
2021/06/06 02:19:36;;;;;;;15.23;10.00;;;17.40;99.90;;;;;;5159282;27;20019;-78
2021/06/06 02:22:06;;;;;;;14.52;10.10;;;17.30;99.90;;;;;;5159473;27;20026;-76
2021/06/06 02:24:34;;;;;;;15.35;9.73;;;17.10;99.90;;;;;;5160959;27;20043;-76
2021/06/06 02:27:11;;;;;;;13.25;9.85;;;16.90;99.90;;;;;;5159074;27;20015;-78
2021/06/06 02:30:05;;;;;;;14.43;10.27;;;17.00;99.90;;;;;;5158751;27;20541;-78
2021/06/06 02:32:53;;;;;;;12.25;10.45;;;16.70;99.90;;;;;;5161481;27;20030;-76
2021/06/06 02:36:04;;;;;;;15.98;11.43;;;16.80;99.90;;;;;;5150612;27;20035;-77
2021/06/06 02:38:55;;;;;;;16.58;11.32;;;17.00;99.90;;;;;;5077287;28;20024;-78
2021/06/06 02:41:26;;;;;;;21.73;14.52;;;17.00;99.90;;;;;;5080669;28;20028;-78
2021/06/06 02:44:02;;;;;;;20.63;14.55;;;17.10;99.90;;;;;;5080662;28;20028;-77
2021/06/06 02:46:29;;;;;;;20.38;14.18;;;17.20;99.90;;;;;;5080462;28;20039;-78
2021/06/06 02:49:08;;;;;;;20.10;14.73;;;17.20;99.90;;;;;;5079246;28;20024;-78
2021/06/06 02:51:40;;;;;;;19.23;14.68;;;17.30;99.90;;;;;;5081264;28;20019;-75
2021/06/06 02:54:14;;;;;;;18.25;13.68;;;17.30;99.90;;;;;;5079853;28;20167;-75
2021/06/06 02:56:59;;;;;;;15.32;11.80;;;17.30;99.90;;;;;;5080274;28;20403;-76
2021/06/06 02:59:33;;;;;;;17.40;11.93;;;17.10;99.90;;;;;;5079797;28;20439;-76
2021/06/06 03:02:08;;;;;;;17.70;11.35;;;17.00;99.90;;;;;;5063865;28;20127;-76
2021/06/06 03:04:37;;;;;;;15.95;10.73;;;16.90;99.90;;;;;;5081751;28;20055;-76
2021/06/06 03:07:10;;;;;;;15.45;10.45;;;16.90;99.90;;;;;;5080804;28;20024;-74
2021/06/06 03:09:36;;;;;;;14.20;10.13;;;17.10;99.90;;;;;;5126891;27;20019;-79
2021/06/06 03:12:08;;;;;;;18.60;10.80;;;17.30;99.90;;;;;;5162255;27;20376;-78
2021/06/06 03:14:37;;;;;;;15.80;10.55;;;17.40;99.90;;;;;;5162223;27;20097;-78
2021/06/06 03:17:16;;;;;;;15.32;10.80;;;17.40;99.90;;;;;;5160079;27;20022;-77
2021/06/06 03:19:48;;;;;;;21.58;12.13;;;17.40;99.90;;;;;;5157322;27;20502;-77
2021/06/06 03:22:36;;;;;;;19.52;11.73;;;17.40;99.90;;;;;;5156418;27;20030;-78
2021/06/06 03:25:27;;;;;;;15.85;12.40;;;17.30;99.90;;;;;;5155926;27;20022;-76
2021/06/06 03:27:54;;;;;;;17.88;12.15;;;17.30;99.90;;;;;;5164369;27;20179;-78
2021/06/06 03:30:31;;;;;;;16.40;11.98;;;17.50;99.90;;;;;;5168370;27;20027;-76
2021/06/06 03:33:00;;;;;;;20.23;12.40;;;17.50;99.90;;;;;;5164592;27;20109;-77
2021/06/06 03:35:26;;;;;;;21.08;12.50;;;17.40;99.90;;;;;;5165291;27;20006;-78
2021/06/06 03:37:52;;;;;;;15.38;11.93;;;17.40;99.90;;;;;;5165562;27;20054;-80
2021/06/06 03:40:21;;;;;;;19.92;12.07;;;17.40;99.90;;;;;;5164654;27;20019;-77
2021/06/06 03:42:47;;;;;;;16.27;11.38;;;17.50;99.90;;;;;;5163336;27;20022;-79
2021/06/06 03:45:14;;;;;;;19.50;10.95;;;17.50;99.90;;;;;;5164986;27;20010;-79
2021/06/06 03:47:40;;;;;;;15.55;10.82;;;17.50;99.90;;;;;;5163610;27;20015;-78
2021/06/06 03:50:09;;;;;;;17.67;11.68;;;17.40;99.90;;;;;;5165892;27;20083;-78
2021/06/06 03:52:35;;;;;;;18.00;11.82;;;17.40;99.90;;;;;;5165377;27;20034;-77
2021/06/06 03:55:04;;;;;;;22.10;11.95;;;17.50;99.90;;;;;;5167651;27;20083;-79
2021/06/06 03:57:32;;;;;;;16.35;11.40;;;17.50;99.90;;;;;;5165993;27;20435;-79
2021/06/06 04:00:04;;;;;;;14.68;11.05;;;17.60;99.90;;;;;;5163939;27;20023;-79
2021/06/06 04:02:30;;;;;;;18.25;12.27;;;17.70;99.90;;;;;;5162518;27;20043;-78
2021/06/06 04:04:56;;;;;;;16.52;11.55;;;17.70;99.90;;;;;;5167287;27;20010;-79
2021/06/06 04:07:22;;;;;;;18.45;11.70;;;17.70;99.90;;;;;;5165601;27;20027;-80
2021/06/06 04:09:48;;;;;;;16.85;12.18;;;17.70;99.90;;;;;;5163649;27;20056;-79
2021/06/06 04:12:14;;;;;;;17.65;12.57;;;17.70;99.90;;;;;;5164196;27;20015;-78
2021/06/06 04:14:40;;;;;;;22.83;14.38;;;17.80;99.90;;;;;;5162795;27;20015;-79
2021/06/06 04:17:06;;;;;;;20.98;13.77;;;17.90;99.90;;;;;;5165824;27;20358;-78
2021/06/06 04:19:32;;;;;;;24.23;13.57;;;18.00;99.90;;;;;;5165495;27;20486;-78
2021/06/06 04:21:58;;;;;;;21.35;13.25;;;18.00;99.90;;;;;;5166034;27;20035;-79
2021/06/06 04:24:24;;;;;;;20.98;13.52;;;18.00;99.90;;;;;;5165302;27;20024;-78
2021/06/06 04:26:50;;;;;;;17.20;13.35;;;18.10;99.90;;;;;;5163396;27;20109;-79
2021/06/06 04:29:16;;;;;;;18.15;12.98;;;18.00;99.90;;;;;;5164351;27;20003;-78
2021/06/06 04:31:42;;;;;;;20.15;13.07;;;18.20;99.90;;;;;;5164884;27;20018;-79
2021/06/06 04:34:08;;;;;;;17.77;13.82;;;18.30;99.90;;;;;;5165378;27;20072;-77
2021/06/06 04:36:34;;;;;;;17.38;11.60;;;18.60;99.90;;;;;;5163612;27;20023;-78
2021/06/06 04:39:00;;;;;;;15.98;11.98;;;18.80;99.70;;;;;;5164129;27;20030;-80
2021/06/06 04:41:26;;;;;;;17.65;10.50;;;19.00;99.90;;;;;;5166039;27;20026;-78
2021/06/06 04:43:52;;;;;;;17.35;11.45;;;19.30;99.20;;;;;;5163893;27;20026;-80
2021/06/06 04:46:20;;;;;;;13.18;10.88;;;19.20;99.70;;;;;;5162064;27;20079;-77
2021/06/06 04:48:47;;;;;;;14.27;9.75;;;18.90;98.70;;;;;;5166661;27;20025;-79
2021/06/06 04:51:19;;;;;;;16.63;10.40;;;18.80;99.20;;;;;;5163170;27;20026;-79
2021/06/06 04:53:49;;;;;;;16.05;10.90;;;18.80;99.50;;;;;;5164949;27;20031;-80
2021/06/06 04:56:17;;;;;;;15.50;10.43;;;18.90;99.90;;;;;;5166721;27;20007;-78
2021/06/06 04:58:44;;;;;;;15.80;10.60;;;18.90;99.90;;;;;;5163833;27;20023;-80
2021/06/06 05:01:11;;;;;;;16.52;11.98;;;19.00;99.90;;;;;;5162877;27;20018;-78
2021/06/06 05:03:37;;;;;;;16.50;11.57;;;18.80;99.90;;;;;;5164586;27;20195;-78
2021/06/06 05:06:03;;;;;;;14.52;11.45;;;18.90;99.90;;;;;;5163838;27;20037;-79
2021/06/06 05:08:30;;;;;;;12.55;11.00;;;18.90;99.90;;;;;;5166416;27;20002;-77
2021/06/06 05:10:56;;;;;;;12.68;10.63;;;18.90;99.90;;;;;;5163238;27;20023;-76
2021/06/06 05:13:23;;;;;;;25.77;10.50;;;19.00;99.90;;;;;;5165776;27;20468;-79
2021/06/06 05:15:51;;;;;;;16.55;10.25;;;19.10;99.90;;;;;;5163583;27;20030;-78
2021/06/06 05:18:18;;;;;;;17.38;11.25;;;19.00;99.90;;;;;;5164104;27;20540;-79
2021/06/06 05:20:47;;;;;;;15.25;10.80;;;19.00;99.90;;;;;;5165241;27;20026;-79
2021/06/06 05:23:14;;;;;;;16.25;10.77;;;19.10;99.90;;;;;;5162438;27;20034;-79
2021/06/06 05:25:41;;;;;;;15.63;11.50;;;19.20;99.90;;;;;;5160766;27;20075;-78
2021/06/06 05:28:14;;;;;;;14.65;10.45;;;19.10;99.90;;;;;;5163156;27;20023;-79
2021/06/06 05:30:41;;;;;;;14.15;9.90;;;19.20;99.90;;;;;;5163239;27;20026;-79
2021/06/06 05:33:08;;;;;;;15.70;10.25;;;19.30;99.90;;;;;;5163821;27;20246;-78
2021/06/06 05:35:35;;;;;;;11.65;9.43;;;19.40;99.90;;;;;;5164137;27;20558;-78
2021/06/06 05:38:03;;;;;;;12.10;10.70;;;19.50;99.90;;;;;;5163029;27;20023;-79
2021/06/06 05:40:31;;;;;;;11.57;9.77;;;19.50;99.90;;;;;;5162300;27;20044;-79
2021/06/06 05:42:57;;;;;;;18.77;10.65;;;19.40;99.90;;;;;;5162092;27;20113;-80
2021/06/06 05:45:24;;;;;;;14.60;10.52;;;19.30;99.90;;;;;;5164645;27;20002;-78
2021/06/06 05:47:52;;;;;;;12.00;10.32;;;19.40;99.90;;;;;;5163787;27;20027;-79
2021/06/06 05:50:21;;;;;;;11.80;9.55;;;19.40;99.90;;;;;;5159387;27;20015;-78
2021/06/06 05:52:48;;;;;;;12.73;9.35;;;19.40;99.90;;;;;;5160996;27;20070;-77
2021/06/06 05:55:15;;;;;;;14.38;11.38;;;19.30;99.90;;;;;;5160652;27;20003;-79
2021/06/06 05:57:41;;;;;;;12.50;11.20;;;19.20;99.90;;;;;;5161739;27;20022;-77
2021/06/06 06:00:11;;;;;;;16.20;13.63;;;19.10;99.90;;;;;;5161233;27;20068;-77
2021/06/06 06:02:37;;;;;;;16.98;12.40;;;18.90;99.90;;;;;;5159906;27;20130;-77
2021/06/06 06:05:04;;;;;;;14.18;12.30;;;18.80;99.90;;;;;;5162202;27;20003;-77
2021/06/06 06:07:30;;;;;;;16.75;14.63;;;18.70;99.90;;;;;;5162769;27;20483;-78
2021/06/06 06:09:56;;;;;;;20.85;17.05;;;18.70;99.90;;;;;;5165944;27;20106;-78
2021/06/06 06:12:22;;;;;;;20.75;15.43;;;18.60;99.90;;;;;;5168324;27;20078;-77
2021/06/06 06:14:48;;;;;;;15.00;12.93;;;18.60;99.90;;;;;;5168497;27;20066;-78
2021/06/06 06:17:14;;;;;;;14.15;12.45;;;18.50;99.90;;;;;;5167576;27;20011;-78
2021/06/06 06:19:40;;;;;;;15.90;12.88;;;18.50;99.90;;;;;;5166993;27;20023;-78
2021/06/06 06:22:06;;;;;;;14.52;12.98;;;18.60;99.90;;;;;;5167583;27;20050;-78
2021/06/06 06:24:34;;;;;;;13.30;11.90;;;18.60;99.90;;;;;;5167267;27;20023;-78
2021/06/06 06:27:00;;;;;;;14.63;12.75;;;18.50;99.90;;;;;;5167462;27;20029;-78
2021/06/06 06:29:27;;;;;;;16.75;12.45;;;18.40;99.90;;;;;;5166246;27;20018;-78
2021/06/06 06:31:54;;;;;;;14.32;12.30;;;18.40;99.90;;;;;;5167183;27;20093;-77
2021/06/06 06:34:20;;;;;;;14.40;12.95;;;18.50;99.90;;;;;;5167173;27;20097;-78
2021/06/06 06:36:47;;;;;;;15.90;12.82;;;18.50;99.90;;;;;;5168641;27;20015;-77
2021/06/06 06:39:14;;;;;;;12.30;11.10;;;18.50;99.90;;;;;;5167565;27;20010;-77
2021/06/06 06:41:39;;;;;;;15.73;13.13;;;18.50;99.90;;;;;;5163614;27;20023;-77
2021/06/06 06:44:06;;;;;;;17.85;13.45;;;18.60;99.90;;;;;;5164188;27;20022;-77
2021/06/06 06:46:32;;;;;;;13.77;11.48;;;18.70;99.90;;;;;;5164386;27;20015;-77
2021/06/06 06:48:58;;;;;;;14.55;12.60;;;18.90;99.90;;;;;;5164871;27;20019;-75
2021/06/06 06:51:26;;;;;;;14.43;11.40;;;18.90;99.90;;;;;;5161782;27;20072;-77
2021/06/06 06:53:54;;;;;;;14.60;11.45;;;19.10;99.90;;;;;;5163848;27;20372;-77
2021/06/06 06:56:23;;;;;;;13.90;11.30;;;19.20;99.90;;;;;;5166121;27;20023;-77
2021/06/06 06:58:49;;;;;;;16.20;14.40;;;19.50;99.90;;;;;;5160478;27;20018;-76
2021/06/06 07:01:15;;;;;;;18.33;16.52;;;19.60;99.90;;;;;;5163395;27;20349;-77
2021/06/06 07:03:41;;;;;;;13.75;11.48;;;19.80;99.90;;;;;;5164133;27;20050;-77
2021/06/06 07:06:07;;;;;;;12.00;9.73;;;19.90;99.90;;;;;;5160330;27;20436;-77
2021/06/06 07:08:39;;;;;;;15.70;13.30;;;20.00;99.90;;;;;;5162171;27;20022;-77
2021/06/06 07:11:08;;;;;;;18.13;13.85;;;20.10;99.90;;;;;;5161096;27;20019;-77
2021/06/06 07:13:34;;;;;;;15.20;12.18;;;20.20;99.90;;;;;;5160890;27;20114;-77
2021/06/06 07:16:00;;;;;;;13.35;10.30;;;20.50;99.90;;;;;;5161571;27;20023;-78
2021/06/06 07:18:28;;;;;;;11.45;9.70;;;20.50;99.90;;;;;;5164224;27;20023;-77
2021/06/06 07:21:01;;;;;;;11.05;9.55;;;20.70;99.90;;;;;;5163656;27;20050;-78
2021/06/06 07:23:29;;;;;;;13.32;10.38;;;20.70;99.90;;;;;;5166145;27;20379;-77
2021/06/06 07:25:58;;;;;;;12.80;11.40;;;21.00;99.90;;;;;;5168311;27;20098;-77
2021/06/06 07:28:26;;;;;;;11.55;9.82;;;21.20;99.90;;;;;;5166634;27;20023;-77
2021/06/06 07:30:56;;;;;;;11.63;10.43;;;21.30;99.90;;;;;;5165461;27;20003;-76
2021/06/06 07:33:26;;;;;;;12.20;10.90;;;21.60;99.90;;;;;;5164065;27;20121;-75
2021/06/06 07:36:41;;;;;;;15.27;10.60;;;22.10;99.90;;;;;;5160110;27;20026;-77
2021/06/06 07:39:07;;;;;;;9.48;8.20;;;22.50;99.90;;;;;;5165375;27;20518;-76
2021/06/06 07:41:34;;;;;;;11.93;9.90;;;22.70;99.90;;;;;;5168715;27;20014;-76
2021/06/06 07:43:59;;;;;;;12.70;11.40;;;22.80;99.90;;;;;;5165268;27;20015;-75
2021/06/06 07:46:26;;;;;;;10.48;8.90;;;23.20;99.90;;;;;;5156530;27;20169;-76
2021/06/06 07:48:53;;;;;;;10.32;9.23;;;23.30;99.90;;;;;;5158818;27;20106;-76
2021/06/06 07:51:22;;;;;;;14.13;10.40;;;23.40;99.90;;;;;;5160470;27;20023;-76
2021/06/06 07:53:51;;;;;;;11.40;10.20;;;23.60;99.90;;;;;;5160405;27;20035;-75
2021/06/06 07:56:17;;;;;;;12.07;8.18;;;23.80;99.90;;;;;;5162986;27;20023;-76
2021/06/06 07:58:43;;;;;;;8.15;7.45;;;24.20;99.90;;;;;;5157096;27;20046;-76
2021/06/06 08:01:10;;;;;;;8.73;6.70;;;24.50;99.90;;;;;;5158048;27;20774;-75
2021/06/06 08:03:36;;;;;;;6.82;6.13;;;24.80;99.90;;;;;;5158608;27;20126;-75
2021/06/06 08:06:05;;;;;;;8.00;6.50;;;24.70;99.90;;;;;;5157423;27;20018;-75
2021/06/06 08:08:32;;;;;;;10.90;7.72;;;24.70;99.90;;;;;;5156226;27;20011;-75
2021/06/06 08:11:00;;;;;;;8.07;7.28;;;24.80;99.90;;;;;;5154431;27;20019;-77
2021/06/06 08:13:27;;;;;;;10.05;6.90;;;24.40;99.90;;;;;;5162947;27;20074;-76
2021/06/06 08:15:54;;;;;;;10.73;6.57;;;24.40;99.90;;;;;;5159408;27;20027;-78
2021/06/06 08:18:26;;;;;;;9.50;6.72;;;24.50;99.90;;;;;;5156468;27;20026;-77
2021/06/06 08:20:55;;;;;;;8.35;6.32;;;24.20;99.90;;;;;;5156802;27;20019;-78
2021/06/06 08:23:21;;;;;;;7.43;6.43;;;24.30;99.90;;;;;;5155663;27;20068;-77
2021/06/06 08:25:48;;;;;;;10.45;6.72;;;24.30;99.90;;;;;;5156084;27;20502;-76
2021/06/06 08:28:15;;;;;;;7.10;6.13;;;24.40;99.90;;;;;;5156444;27;20010;-78
2021/06/06 08:30:49;;;;;;;9.27;6.50;;;24.40;99.90;;;;;;5156435;27;20046;-77
2021/06/06 08:33:17;;;;;;;7.30;5.57;;;24.40;99.40;;;;;;5151175;27;20387;-78
2021/06/06 08:35:43;;;;;;;6.93;5.95;;;24.40;99.30;;;;;;5157383;27;20014;-78
2021/06/06 08:38:09;;;;;;;8.77;5.85;;;24.80;99.80;;;;;;5165483;27;20080;-79
2021/06/06 08:40:46;;;;;;;6.85;5.68;;;25.20;98.30;;;;;;5165086;27;20019;-79
2021/06/06 08:43:13;;;;;;;7.70;5.13;;;25.50;97.10;;;;;;5162908;27;20076;-80
2021/06/06 08:45:59;;;;;;;7.30;6.25;;;25.70;96.90;;;;;;5159569;27;20019;-80
2021/06/06 08:48:28;;;;;;;10.00;6.25;;;26.10;96.80;;;;;;5162307;27;20030;-79
2021/06/06 08:51:33;;;;;;;8.95;6.20;;;26.20;96.20;;;;;;5161704;27;20023;-79
2021/06/06 08:54:19;;;;;;;7.68;5.78;;;26.00;96.00;;;;;;5160145;27;20494;-79
2021/06/06 08:56:47;;;;;;;8.25;6.18;;;26.20;96.50;;;;;;5156501;27;20074;-79
2021/06/06 08:59:24;;;;;;;8.90;6.60;;;25.70;96.50;;;;;;5156846;27;20011;-80
2021/06/06 09:02:15;;;;;;;9.07;6.40;;;26.20;96.10;;;;;;5154371;27;20014;-79
2021/06/06 09:04:41;;;;;;;8.25;6.45;;;26.30;95.40;;;;;;5155747;27;20037;-81
2021/06/06 09:07:13;;;;;;;7.05;5.75;;;26.50;95.20;;;;;;5157890;27;20026;-78
2021/06/06 09:09:43;;;;;;;7.68;5.65;;;26.80;94.20;;;;;;5165583;27;20022;-79
2021/06/06 09:12:18;;;;;;;6.72;5.63;;;27.10;93.10;;;;;;5164683;27;20026;-78
2021/06/06 09:14:45;;;;;;;7.93;5.75;;;27.20;92.70;;;;;;5160523;27;20014;-78
2021/06/06 09:17:15;;;;;;;9.00;5.63;;;27.30;92.50;;;;;;5160621;27;20106;-75
2021/06/06 09:19:50;;;;;;;7.78;5.57;;;27.30;92.80;;;;;;5157602;27;20019;-77
2021/06/06 09:22:30;;;;;;;10.40;5.82;;;26.80;91.50;;;;;;5160784;27;20011;-77
2021/06/06 09:25:12;;;;;;;9.45;5.80;;;26.70;92.30;;;;;;5160137;27;20030;-76
2021/06/06 09:27:39;;;;;;;8.75;5.85;;;26.70;92.60;;;;;;5155926;27;20030;-76
2021/06/06 09:30:21;;;;;;;11.20;6.28;;;26.50;92.00;;;;;;5157828;27;20010;-76
2021/06/06 09:32:51;;;;;;;12.38;9.45;;;26.60;93.30;;;;;;5152605;27;20034;-75
2021/06/06 09:35:30;;;;;;;7.28;5.80;;;26.50;93.50;;;;;;5160146;27;20521;-77
2021/06/06 09:38:21;;;;;;;7.90;6.28;;;26.10;92.80;;;;;;5157753;27;20088;-76
2021/06/06 09:40:50;;;;;;;6.90;6.00;;;26.00;93.10;;;;;;5159090;27;20026;-77
2021/06/06 09:43:32;;;;;;;9.60;7.70;;;25.70;93.30;;;;;;5162722;27;20011;-78
2021/06/06 09:46:17;;;;;;;11.10;7.60;;;25.40;94.10;;;;;;5159126;27;20034;-76
2021/06/06 09:48:44;;;;;;;9.40;8.30;;;25.30;94.90;;;;;;5159491;27;20034;-76
2021/06/06 09:53:46;;;;;;;11.15;7.75;;;24.90;95.80;;;;;;5149993;27;20528;-79
2021/06/06 09:56:21;;;;;;;11.15;7.50;;;24.70;96.80;;;;;;5142786;27;20023;-77
2021/06/06 09:58:49;;;;;;;11.02;8.20;;;24.70;97.70;;;;;;5140468;27;20129;-78
2021/06/06 10:01:37;;;;;;;12.48;8.93;;;24.60;98.60;;;;;;5140318;28;20045;-77
2021/06/06 10:04:07;;;;;;;12.18;8.07;;;24.50;99.60;;;;;;5141530;27;20019;-77
2021/06/06 10:06:40;;;;;;;11.70;9.05;;;24.30;99.90;;;;;;5135816;28;20111;-77
2021/06/06 10:09:18;;;;;;;12.35;8.82;;;24.00;99.90;;;;;;5142489;27;20023;-76
2021/06/06 10:11:56;;;;;;;11.63;7.80;;;23.70;99.90;;;;;;5137394;27;20015;-78
2021/06/06 10:14:31;;;;;;;11.68;9.07;;;23.50;99.90;;;;;;5139420;28;20088;-76
2021/06/06 10:17:05;;;;;;;16.15;10.15;;;23.40;99.90;;;;;;5139338;28;20122;-75
2021/06/06 10:19:51;;;;;;;12.48;9.32;;;23.20;99.90;;;;;;5142030;27;20023;-75
2021/06/06 10:22:30;;;;;;;10.55;9.55;;;22.90;99.90;;;;;;5140525;28;20461;-76
2021/06/06 10:25:08;;;;;;;12.80;9.63;;;22.80;99.90;;;;;;5140739;27;20027;-75
2021/06/06 10:27:42;;;;;;;12.00;9.18;;;22.70;99.90;;;;;;5139776;28;20003;-75
2021/06/06 10:30:17;;;;;;;12.77;8.87;;;22.60;99.90;;;;;;5139407;27;20027;-75
2021/06/06 10:32:46;;;;;;;11.55;8.80;;;22.50;99.90;;;;;;5141698;27;20049;-75
2021/06/06 10:35:25;;;;;;;13.65;8.95;;;22.40;99.90;;;;;;5142323;27;20023;-75
2021/06/06 10:37:55;;;;;;;10.82;9.70;;;22.40;99.90;;;;;;5141935;27;20022;-76
2021/06/06 10:40:39;;;;;;;10.95;9.02;;;22.30;99.90;;;;;;5142650;27;20486;-76
2021/06/06 10:50:35;;;;;;;11.80;8.73;;;22.30;99.90;;;;;;5143074;28;20052;-75
2021/06/06 10:53:25;;;;;;;13.95;10.07;;;22.40;99.90;;;;;;5131631;28;20039;-75
2021/06/06 10:56:13;;;;;;;12.82;8.40;;;22.30;99.90;;;;;;5143537;27;20019;-73
2021/06/06 10:59:32;;;;;;;10.93;8.43;;;22.40;99.90;;;;;;5139400;27;20019;-73
2021/06/06 11:03:17;;;;;;;14.52;10.10;;;22.60;99.90;;;;;;5140657;27;20099;-75
2021/06/06 11:06:06;;;;;;;12.10;9.70;;;22.70;99.90;;;;;;5143913;27;20044;-75
2021/06/06 11:08:39;;;;;;;10.10;8.45;;;22.70;99.90;;;;;;5145685;27;20047;-76
2021/06/06 11:11:13;;;;;;;10.60;9.50;;;22.80;99.90;;;;;;5148834;27;20027;-76
2021/06/06 11:13:50;;;;;;;9.55;8.52;;;23.00;99.90;;;;;;5137541;27;20401;-74
2021/06/06 11:16:16;;;;;;;9.52;8.63;;;23.10;99.90;;;;;;5137820;27;20023;-73
2021/06/06 11:18:47;;;;;;;11.48;9.88;;;23.30;99.90;;;;;;5137636;27;20023;-74
2021/06/06 11:21:13;;;;;;;10.60;9.50;;;23.40;99.90;;;;;;5135062;27;20016;-74
2021/06/06 11:24:01;;;;;;;10.77;9.68;;;23.60;99.90;;;;;;5136772;27;20019;-75
2021/06/06 11:26:33;;;;;;;9.77;8.77;;;23.90;99.90;;;;;;5137699;27;20035;-73
2021/06/06 11:29:21;;;;;;;11.65;9.80;;;24.20;99.90;;;;;;5136533;27;20027;-74
2021/06/06 11:32:10;;;;;;;9.35;8.45;;;24.60;99.90;;;;;;5142366;27;20023;-76
2021/06/06 11:34:38;;;;;;;9.57;8.30;;;24.90;99.90;;;;;;5145054;27;20031;-75
2021/06/06 11:37:12;;;;;;;9.98;8.50;;;25.70;99.90;;;;;;5144244;27;20465;-76
2021/06/06 11:39:41;;;;;;;9.57;8.57;;;26.10;99.90;;;;;;5144539;27;20507;-78
2021/06/06 11:42:39;;;;;;;9.60;8.20;;;26.50;99.90;;;;;;5145706;27;20027;-79
2021/06/06 11:45:44;;;;;;;9.75;8.73;;;26.90;99.90;;;;;;5139429;27;20122;-76
2021/06/06 11:48:33;;;;;;;11.70;10.50;;;27.30;99.90;;;;;;5058403;28;20029;-74
2021/06/06 11:51:00;;;;;;;10.48;8.45;;;27.30;99.90;;;;;;5136299;27;20031;-77
2021/06/06 11:53:37;;;;;;;10.27;8.63;;;27.20;99.90;;;;;;5134865;27;20025;-77
2021/06/06 11:56:31;;;;;;;12.52;9.70;;;27.00;99.90;;;;;;5137483;27;20461;-74
2021/06/06 11:59:06;;;;;;;11.15;8.63;;;26.80;99.90;;;;;;5132454;27;20038;-76
2021/06/06 12:01:35;;;;;;;10.48;8.85;;;26.80;99.90;;;;;;5135563;27;20018;-76
2021/06/06 12:04:10;;;;;;;10.30;9.07;;;27.00;99.90;;;;;;5137438;27;20126;-75
2021/06/06 12:06:39;;;;;;;10.13;9.13;;;27.30;99.90;;;;;;5139331;27;20019;-74
2021/06/06 12:09:26;;;;;;;9.48;8.57;;;27.60;99.90;;;;;;5142697;27;20059;-75
2021/06/06 12:12:05;;;;;;;9.85;8.00;;;27.70;99.90;;;;;;5136072;27;20117;-75
2021/06/06 12:14:32;;;;;;;8.27;7.47;;;27.70;98.60;;;;;;5143676;27;20027;-75
2021/06/06 12:17:03;;;;;;;11.25;7.35;;;27.90;98.40;;;;;;5136138;27;20065;-75
2021/06/06 12:19:43;;;;;;;11.98;6.78;;;28.00;98.50;;;;;;5136677;27;20046;-79
2021/06/06 12:22:22;;;;;;;7.68;6.57;;;28.40;98.10;;;;;;5135340;27;20072;-79
2021/06/06 12:24:57;;;;;;;10.75;7.10;;;28.50;95.50;;;;;;5138922;27;20046;-78
2021/06/06 12:27:26;;;;;;;9.00;7.10;;;27.90;95.30;;;;;;5143165;27;20081;-78
2021/06/06 12:29:57;;;;;;;10.73;7.03;;;27.60;96.20;;;;;;5144300;27;20512;-78
2021/06/06 12:32:33;;;;;;;10.82;7.15;;;27.20;96.10;;;;;;5148561;27;20027;-79
2021/06/06 12:35:10;;;;;;;8.82;6.90;;;26.90;96.10;;;;;;5144901;27;20027;-77
2021/06/06 12:37:38;;;;;;;10.30;6.10;;;26.60;96.10;;;;;;5144645;27;20023;-78
2021/06/06 12:40:05;;;;;;;11.63;5.65;;;26.60;95.90;;;;;;5141792;27;20073;-77
2021/06/06 12:42:32;;;;;;;7.47;6.13;;;26.60;93.70;;;;;;5138664;27;20040;-76
2021/06/06 12:45:03;;;;;;;7.25;5.97;;;26.80;96.30;;;;;;5141830;27;20102;-80
2021/06/06 12:47:35;;;;;;;6.28;5.65;;;27.00;96.00;;;;;;5141788;27;20114;-78
2021/06/06 12:50:10;;;;;;;7.13;6.43;;;26.80;95.40;;;;;;5140352;27;20003;-79
2021/06/06 12:52:59;;;;;;;10.05;6.75;;;26.60;95.80;;;;;;5140688;27;20031;-78
2021/06/06 12:55:38;;;;;;;8.35;6.68;;;26.60;95.80;;;;;;5136761;27;20035;-77
2021/06/06 12:58:16;;;;;;;9.38;6.53;;;26.30;95.50;;;;;;5136462;27;20050;-77
2021/06/06 13:00:51;;;;;;;7.53;6.50;;;26.10;95.90;;;;;;5135694;27;20019;-76
2021/06/06 13:03:38;;;;;;;14.00;6.50;;;25.90;95.90;;;;;;5135009;27;20047;-76
2021/06/06 13:06:25;;;;;;;9.38;6.68;;;25.80;96.00;;;;;;5136234;27;20102;-76
2021/06/06 13:08:52;;;;;;;7.43;5.90;;;25.70;96.70;;;;;;5135780;27;20029;-76
2021/06/06 13:11:20;;;;;;;10.88;6.80;;;25.70;96.40;;;;;;5137122;27;20396;-76